地図

経路データ

SID SEASON NUMBER BASIN SUBBASIN NAME ISO_TIME NATURE LAT LON WMO_WIND WMO_PRES WMO_AGENCY TRACK_TYPE DIST2LAND LANDFALL IFLAG USA_AGENCY USA_ATCF_ID USA_LAT USA_LON USA_RECORD USA_STATUS USA_WIND USA_PRES USA_SSHS USA_R34_NE USA_R34_SE USA_R34_SW USA_R34_NW USA_R50_NE USA_R50_SE USA_R50_SW USA_R50_NW USA_R64_NE USA_R64_SE USA_R64_SW USA_R64_NW USA_POCI USA_ROCI USA_RMW USA_EYE TOKYO_LAT TOKYO_LON TOKYO_GRADE TOKYO_WIND TOKYO_PRES TOKYO_R50_DIR TOKYO_R50_LONG TOKYO_R50_SHORT TOKYO_R30_DIR TOKYO_R30_LONG TOKYO_R30_SHORT TOKYO_LAND CMA_LAT CMA_LON CMA_CAT CMA_WIND CMA_PRES HKO_LAT HKO_LON HKO_CAT HKO_WIND HKO_PRES NEWDELHI_LAT NEWDELHI_LON NEWDELHI_GRADE NEWDELHI_WIND NEWDELHI_PRES NEWDELHI_CI NEWDELHI_DP NEWDELHI_POCI REUNION_LAT REUNION_LON REUNION_TYPE REUNION_WIND REUNION_PRES REUNION_TNUM REUNION_CI REUNION_RMW REUNION_R34_NE REUNION_R34_SE REUNION_R34_SW REUNION_R34_NW REUNION_R50_NE REUNION_R50_SE REUNION_R50_SW REUNION_R50_NW REUNION_R64_NE REUNION_R64_SE REUNION_R64_SW REUNION_R64_NW BOM_LAT BOM_LON BOM_TYPE BOM_WIND BOM_PRES BOM_TNUM BOM_CI BOM_RMW BOM_R34_NE BOM_R34_SE BOM_R34_SW BOM_R34_NW BOM_R50_NE BOM_R50_SE BOM_R50_SW BOM_R50_NW BOM_R64_NE BOM_R64_SE BOM_R64_SW BOM_R64_NW BOM_ROCI BOM_POCI BOM_EYE BOM_POS_METHOD BOM_PRES_METHOD NADI_LAT NADI_LON NADI_CAT NADI_WIND NADI_PRES WELLINGTON_LAT WELLINGTON_LON WELLINGTON_WIND WELLINGTON_PRES DS824_LAT DS824_LON DS824_STAGE DS824_WIND DS824_PRES TD9636_LAT TD9636_LON TD9636_STAGE TD9636_WIND TD9636_PRES TD9635_LAT TD9635_LON TD9635_WIND TD9635_PRES TD9635_ROCI NEUMANN_LAT NEUMANN_LON NEUMANN_CLASS NEUMANN_WIND NEUMANN_PRES MLC_LAT MLC_LON MLC_CLASS MLC_WIND MLC_PRES USA_GUST BOM_GUST BOM_GUST_PER REUNION_GUST REUNION_GUST_PER USA_SEAHGT USA_SEARAD_NE USA_SEARAD_SE USA_SEARAD_SW USA_SEARAD_NW STORM_SPEED STORM_DIR
2001106S08137 2001 20 SP EA ALISTAIR 2001-04-15 12:00:00 NR -7.50000 137.000 20 1008 bom main 104 104 ______O_______ -1 -7.50000 137.000 20 20 1008 1.00000 268 3 5 247
2001106S08137 2001 20 SP EA ALISTAIR 2001-04-15 15:00:00 NR -7.58880 136.787 main 119 119 ______P_______ -1 -7.58880 136.787 20 21 1006 268 5 246
2001106S08137 2001 20 SP EA ALISTAIR 2001-04-15 18:00:00 NR -7.71212 136.510 main 143 143 ______P_______ -1 -7.71212 136.510 20 22 1005 268 8 245
2001106S08137 2001 20 SP EA ALISTAIR 2001-04-15 21:00:00 NR -7.90446 136.102 main 174 174 ______P_______ -1 -7.90446 136.102 20 23 1004 268 12 243
2001106S08137 2001 20 SP EA ALISTAIR 2001-04-16 00:00:00 TS -8.23333 135.467 25 1003 bom main 198 189 O_____O_____O_ jtwc_sh SH202001 -8.30000 135.400 TD 25 -1 -8.20000 135.500 20 25 1003 1.50000 268 3 -8.30000 135.400 TC 25 14 244
2001106S08137 2001 20 SI WA ALISTAIR 2001-04-16 03:00:00 TS -8.52277 134.827 main 191 191 P_____P_____P_ SH202001 -8.44262 134.948 TD 27 -1 -8.60292 134.706 20 25 1001 254 -8.44262 134.948 TC 27 13 245
2001106S08137 2001 20 SI WA ALISTAIR 2001-04-16 06:00:00 TS -8.76000 134.300 25 1000 bom main 213 212 O_____O_____O_ jtwc_sh SH202001 -8.60000 134.500 TD 30 -1 -9.00000 134.000 20 25 1000 2.00000 241 3 -8.60000 134.500 TC 30 10 244
2001106S08137 2001 20 SI WA ALISTAIR 2001-04-16 09:00:00 TS -8.94734 133.935 main 226 226 P_____P_____P_ SH202001 -8.78492 134.057 TD 32 -1 -9.27218 133.690 20 27 1000 241 -8.78492 134.057 TC 32 8 241
2001106S08137 2001 20 SI WA ALISTAIR 2001-04-16 12:00:00 TS -9.16667 133.567 30 1000 bom main 258 219 O_____O_____O_ jtwc_sh SH202001 -9.00000 133.600 TS 35 0 -9.50000 133.500 20 30 1000 2.50000 241 3 -9.00000 133.600 TC 35 9 243
2001106S08137 2001 20 SI WA ALISTAIR 2001-04-16 15:00:00 TS -9.37516 133.099 main 219 184 P_____P_____P_ SH202001 -9.23493 133.115 TS 35 0 -9.65562 133.068 20 32 997 229 -9.23493 133.115 TC 35 10 241
2001106S08137 2001 20 SI WA ALISTAIR 2001-04-16 18:00:00 TS -9.66667 132.667 35 995 bom main 173 158 O_____V_____O_ jtwc_sh SH202001 -9.50000 132.600 TS 35 0 -10.0000 132.800 30 35 995 3.00000 217 3 -9.50000 132.600 TC 35 10 232
2001106S08137 2001 20 SI WA ALISTAIR 2001-04-16 19:00:00 TS -9.79792 132.548 35 995 bom main 158 145 P_____O_____P_ SH202001 -9.59689 132.422 TS 35 0 -10.2000 132.800 30 35 995 3.00000 214 3 -9.59689 132.422 TC 35 10 238
2001106S08137 2001 20 SI WA ALISTAIR 2001-04-16 21:00:00 TS -9.94537 132.217 main 145 134 P_____P_____P_ SH202001 -9.79995 132.057 TS 35 0 -10.2362 132.537 30 35 995 214 -9.79995 132.057 TC 35 11 249
2001106S08137 2001 20 SI WA ALISTAIR 2001-04-16 22:00:00 TS -10.0016 132.015 35 995 bom main 134 120 P_____O_____P_ SH202001 -9.90242 131.872 TS 35 0 -10.2000 132.300 30 35 995 3.00000 214 3 -9.90242 131.872 TC 35 14 250
2001106S08137 2001 20 SI WA ALISTAIR 2001-04-17 00:00:00 TS -10.1795 131.561 main 120 112 O_____P_____O_ jtwc_sh SH202001 -10.1000 131.500 TS 35 0 -10.3384 131.682 30 38 991 196 -10.1000 131.500 TC 35 14 249
2001106S08137 2001 20 SI WA ALISTAIR 2001-04-17 01:00:00 TS -10.2593 131.346 40 990 bom main 112 101 P_____O_____P_ SH202001 -10.1890 131.319 TS 35 0 -10.4000 131.400 30 40 990 3.00000 187 3 -10.1890 131.319 TC 35 11 251
2001106S08137 2001 20 SI WA ALISTAIR 2001-04-17 03:00:00 TS -10.3646 131.010 main 101 101 P_____P_____P_ SH202001 -10.3574 130.957 TS 37 0 -10.3792 131.114 30 40 990 187 -10.3574 130.957 TC 37 10 251
2001106S08137 2001 20 SI WA ALISTAIR 2001-04-17 04:00:00 TS -10.4258 130.850 40 990 bom main 103 78 P_____O_____P_ SH202001 -10.4386 130.774 TS 38 0 -10.4000 131.000 30 40 990 3.00000 187 3 -10.4386 130.774 TC 38 11 244
2001106S08137 2001 20 SI WA ALISTAIR 2001-04-17 06:00:00 TS -10.6150 130.491 main 78 68 O_____P_____O_ jtwc_sh SH202001 -10.6000 130.400 TS 40 0 -10.6449 130.672 30 40 990 187 -10.6000 130.400 TC 40 12 241
2001106S08137 2001 20 SI WA ALISTAIR 2001-04-17 07:00:00 TS -10.7187 130.302 40 990 bom main 70 57 P_____O_____P_ SH202001 -10.6781 130.203 TS 40 0 -10.8000 130.500 30 40 990 3.00000 187 6 -10.6781 130.203 TC 40 13 242
2001106S08137 2001 20 SI WA ALISTAIR 2001-04-17 09:00:00 TS -10.9148 129.925 main 64 62 P_____P_____P_ SH202001 -10.8350 129.800 TS 40 0 -11.0743 130.174 30 40 990 169 -10.8350 129.800 TC 40 13 242
2001106S08137 2001 20 SI WA ALISTAIR 2001-04-17 10:00:00 TS -11.0117 129.732 40 990 bom main 70 70 P_____O_____P_ SH202001 -10.9175 129.597 TS 40 0 -11.2000 130.000 30 40 990 3.00000 160 6 -10.9175 129.597 TC 40 13 244
2001106S08137 2001 20 SI WA ALISTAIR 2001-04-17 12:00:00 TS -11.1949 129.336 main 93 93 O_____P_____O_ jtwc_sh SH202001 -11.1000 129.200 TS 40 0 -11.3848 129.608 30 40 990 160 -11.1000 129.200 TC 40 13 244
2001106S08137 2001 20 SI WA ALISTAIR 2001-04-17 15:00:00 TS -11.4885 128.746 main 152 152 P_____P_____P_ SH202001 -11.4273 128.650 TS 42 0 -11.6109 128.938 30 40 990 160 -11.4273 128.650 TC 42 13 242
2001106S08137 2001 20 SI WA ALISTAIR 2001-04-17 16:00:00 TS -11.5985 128.546 40 990 bom main 174 174 P_____O_____P_ SH202001 -11.5477 128.469 TS 43 0 -11.7000 128.700 30 40 990 3.00000 160 6 -11.5477 128.469 TC 43 14 239
2001106S08137 2001 20 SI WA ALISTAIR 2001-04-17 18:00:00 TS -11.8541 128.121 main 218 184 O_____P_____O_ jtwc_sh SH202001 -11.8000 128.100 TS 45 0 -11.9623 128.164 30 43 988 153 -11.8000 128.100 TC 45 15 238
2001106S08137 2001 20 SI WA ALISTAIR 2001-04-17 21:00:00 TS -12.2546 127.477 main 173 158 P_____P_____P_ SH202001 -12.1924 127.515 TS 47 0 -12.3790 127.401 30 48 985 143 -12.1924 127.515 TC 47 15 237
2001106S08137 2001 20 SI WA ALISTAIR 2001-04-17 22:00:00 TS -12.3852 127.275 50 985 bom main 158 134 P_____V_____P_ SH202001 -12.3278 127.313 TS 48 0 -12.5000 127.200 30 50 985 3.50000 139 3 -12.3278 127.313 TC 48 14 236
2001106S08137 2001 20 SI WA ALISTAIR 2001-04-18 00:00:00 TS -12.6333 126.900 50 985 bom main 134 104 O_____O_____O_ jtwc_sh SH202001 -12.6000 126.900 TS 50 0 -12.7000 126.900 30 50 985 3.50000 133 3 -12.6000 126.900 TC 50 14 234
2001106S08137 2001 20 SI WA ALISTAIR 2001-04-18 03:00:00 TS -13.0722 126.306 main 100 70 P_____P_____P_ SH202001 -12.9999 126.250 TS 50 0 -13.2166 126.418 30 50 985 133 -12.9999 126.250 TC 50 15 233
2001106S08137 2001 20 SI WA ALISTAIR 2001-04-18 05:00:00 TS -13.3778 125.876 50 985 bom main 70 70 P_____O_____P_ SH202001 -13.2666 125.813 TS 50 0 -13.6000 126.000 30 50 985 3.50000 133 3 -13.2666 125.813 TC 50 16 235
2001106S08137 2001 20 SI WA ALISTAIR 2001-04-18 06:00:00 TS -13.5197 125.642 main 77 70 O_____P_____O_ jtwc_sh SH202001 -13.4000 125.600 TS 50 0 -13.7590 125.724 30 50 984 133 -13.4000 125.600 TC 50 16 239
2001106S08137 2001 20 SI WA ALISTAIR 2001-04-18 09:00:00 TS -13.9260 124.925 main 84 77 P_____P_____P_ SH202001 -13.7998 124.992 TS 52 0 -14.1785 124.791 30 53 981 133 -13.7998 124.992 TC 52 16 240
2001106S08137 2001 20 SI WA ALISTAIR 2001-04-18 10:00:00 TS -14.0554 124.696 55 980 bom main 77 77 P_____O_____P_ SH202001 -13.9332 124.794 TS 53 0 -14.3000 124.500 30 55 980 4.00000 133 3 -13.9332 124.794 TC 53 15 239
2001106S08137 2001 20 SI WA ALISTAIR 2001-04-18 12:00:00 TS -14.3068 124.277 main 102 102 O_____P_____O_ jtwc_sh SH202001 -14.2000 124.400 TS 55 0 -14.5204 124.032 30 56 978 133 -14.2000 124.400 TC 55 14 238
2001106S08137 2001 20 SI WA ALISTAIR 2001-04-18 15:00:00 TS -14.6638 123.683 main 125 125 P_____P_____P_ SH202001 -14.5924 123.792 TS 57 0 -14.8067 123.466 30 59 975 133 -14.5924 123.792 TC 57 13 238
2001106S08137 2001 20 SI WA ALISTAIR 2001-04-18 16:00:00 TS -14.7836 123.495 60 975 bom main 131 131 P_____O_____P_ SH202001 -14.7253 123.592 TS 58 0 -14.9000 123.300 30 60 975 4.00000 133 3 -14.7253 123.592 TC 58 13 236
2001106S08137 2001 20 SI WA ALISTAIR 2001-04-18 18:00:00 TS -15.0278 123.133 main 148 124 O_____P_____O_ jtwc_sh SH202001 -15.0000 123.200 TS 60 0 -15.0833 122.998 30 60 975 133 -15.0000 123.200 TC 60 13 232
2001106S08137 2001 20 SI WA ALISTAIR 2001-04-18 21:00:00 TS -15.4374 122.617 main 127 109 P_____P_____P_ SH202001 -15.4648 122.642 TS 62 0 -15.3826 122.565 30 60 975 133 -15.4648 122.642 TC 62 13 230
2001106S08137 2001 20 SI WA ALISTAIR 2001-04-18 22:00:00 TS -15.5787 122.441 60 975 bom main 114 108 P_____O_____P_ SH202001 -15.6181 122.461 TS 63 0 -15.5000 122.400 30 60 975 4.00000 133 3 -15.6181 122.461 TC 63 14 232
2001106S08137 2001 20 SI WA ALISTAIR 2001-04-19 00:00:00 TS -15.8606 122.063 main 108 108 O_____P_____O_ jtwc_sh SH202001 -15.9000 122.100 TY 65 1 -15.7819 121.988 30 60 975 133 -15.9000 122.100 TC 65 14 235
2001106S08137 2001 20 SI WA ALISTAIR 2001-04-19 03:00:00 TS -16.2358 121.482 main 131 131 P_____P_____P_ SH202001 -16.2297 121.565 TY 65 1 -16.2479 121.316 30 60 975 133 -16.2297 121.565 TC 65 13 237
2001106S08137 2001 20 SI WA ALISTAIR 2001-04-19 04:00:00 TS -16.3493 121.288 60 975 bom main 139 132 P_____O_____P_ SH202001 -16.3239 121.382 TY 65 1 -16.4000 121.100 30 60 975 4.00000 133 3 -16.3239 121.382 TC 65 13 238
2001106S08137 2001 20 SI WA ALISTAIR 2001-04-19 06:00:00 TS -16.5725 120.915 main 158 158 O_____P_____O_ jtwc_sh SH202001 -16.5000 121.000 TY 65 1 -16.7175 120.745 30 58 976 133 -16.5000 121.000 TC 65 13 240
2001106S08137 2001 20 SI WA ALISTAIR 2001-04-19 09:00:00 TS -16.8713 120.332 main 206 206 P_____P_____P_ SH202001 -16.7496 120.395 TY 62 0 -17.1146 120.207 30 55 979 133 -16.7496 120.395 TC 62 13 243
2001106S08137 2001 20 SI WA ALISTAIR 2001-04-19 10:00:00 TS -16.9537 120.117 55 980 bom main 222 222 P_____O_____P_ SH202001 -16.8305 120.175 TY 61 0 -17.2000 120.000 30 55 980 4.00000 133 3 -16.8305 120.175 TC 61 14 253
2001106S08137 2001 20 SI WA ALISTAIR 2001-04-19 12:00:00 TS -17.0843 119.621 main 271 271 O_____P_____O_ jtwc_sh SH202001 -17.0000 119.700 TS 60 0 -17.2529 119.462 30 55 980 133 -17.0000 119.700 TC 60 16 256
2001106S08137 2001 20 SI WA ALISTAIR 2001-04-19 15:00:00 TS -17.2750 118.793 main 314 314 P_____P_____P_ SH202001 -17.3076 118.873 TS 57 0 -17.2099 118.634 30 55 980 133 -17.3076 118.873 TC 57 16 256
2001106S08137 2001 20 SI WA ALISTAIR 2001-04-19 16:00:00 TS -17.3403 118.520 55 980 bom main 319 308 P_____O_____P_ SH202001 -17.4104 118.581 TS 56 0 -17.2000 118.400 30 55 980 4.00000 133 3 -17.4104 118.581 TC 56 14 254
2001106S08137 2001 20 SI WA ALISTAIR 2001-04-19 18:00:00 TS -17.4636 118.084 main 309 309 O_____P_____O_ jtwc_sh SH202001 -17.6000 118.000 TS 55 0 -17.1907 118.251 30 53 981 133 -17.6000 118.000 TC 55 13 254
2001106S08137 2001 20 SI WA ALISTAIR 2001-04-19 21:00:00 TS -17.6427 117.429 main 321 310 P_____P_____P_ SH202001 -17.8146 117.192 TS 55 0 -17.2989 117.903 30 50 984 133 -17.8146 117.192 TC 55 14 254
2001106S08137 2001 20 SI WA ALISTAIR 2001-04-19 22:00:00 TS -17.7181 117.152 50 985 bom main 316 302 P_____O_____P_ SH202001 -17.8772 116.928 TS 55 0 -17.4000 117.600 30 50 985 3.50000 133 3 -17.8772 116.928 TC 55 20 254
2001106S08137 2001 20 SI WA ALISTAIR 2001-04-20 00:00:00 TS -17.9151 116.434 main 303 293 O_____P_____O_ jtwc_sh SH202001 -18.0000 116.400 TS 55 0 -17.7453 116.501 30 50 985 133 -18.0000 116.400 TC 55 21 254
2001106S08137 2001 20 SI WA ALISTAIR 2001-04-20 01:00:00 TS -18.0111 116.080 50 985 bom main 297 291 P_____O_____P_ SH202001 -18.0667 116.120 TS 53 0 -17.9000 116.000 30 50 985 3.50000 133 3 -18.0667 116.120 TC 53 18 255
2001106S08137 2001 20 SI WA ALISTAIR 2001-04-20 03:00:00 TS -18.1471 115.536 main 306 296 P_____P_____P_ SH202001 -18.2001 115.562 TS 50 0 -18.0413 115.484 30 43 988 133 -18.2001 115.562 TC 50 15 255
2001106S08137 2001 20 SI WA ALISTAIR 2001-04-20 04:00:00 TS -18.2112 115.296 40 990 bom main 305 305 P_____O_____P_ SH202001 -18.2668 115.294 TS 48 0 -18.1000 115.300 30 40 990 3.00000 133 3 -18.2668 115.294 TC 48 14 253
2001106S08137 2001 20 SI WA ALISTAIR 2001-04-20 06:00:00 TS -18.3622 114.811 main 315 315 O_____P_____O_ jtwc_sh SH202001 -18.4000 114.800 TS 45 0 -18.2866 114.833 30 40 990 -18.4000 114.800 TC 45 14 251
2001106S08137 2001 20 SI WA ALISTAIR 2001-04-20 07:00:00 TS -18.4408 114.588 40 990 bom main 325 316 P_____O_____P_ SH202001 -18.4612 114.583 TS 45 0 -18.4000 114.600 30 40 990 3.00000 3 -18.4612 114.583 TC 45 13 248
2001106S08137 2001 20 SI WA ALISTAIR 2001-04-20 09:00:00 TS -18.6075 114.173 main 331 327 P_____P_____P_ SH202001 -18.5846 114.197 TS 45 0 -18.6533 114.125 30 40 990 -18.5846 114.197 TC 45 13 246
2001106S08137 2001 20 SI WA ALISTAIR 2001-04-20 10:00:00 TS -18.7004 113.982 40 990 bom main 333 331 P_____O_____P_ SH202001 -18.6505 114.023 TS 45 0 -18.8000 113.900 30 40 990 3.00000 3 -18.6505 114.023 TC 45 12 239
2001106S08137 2001 20 SI WA ALISTAIR 2001-04-20 12:00:00 TS -18.9145 113.632 main 338 326 O_____P_____O_ jtwc_sh SH202001 -18.8000 113.700 TS 45 0 -19.1436 113.495 30 40 990 -18.8000 113.700 TC 45 12 237
2001106S08137 2001 20 SI WA ALISTAIR 2001-04-20 13:00:00 TS -19.0256 113.461 40 990 bom main 328 313 P_____O_____P_ SH202001 -18.8884 113.541 TS 44 0 -19.3000 113.300 30 40 990 3.00000 3 -18.8884 113.541 TC 44 12 237
2001106S08137 2001 20 SI WA ALISTAIR 2001-04-20 15:00:00 TS -19.2298 113.123 main 316 305 P_____P_____P_ SH202001 -19.0847 113.242 TS 42 0 -19.5200 112.885 30 40 990 -19.0847 113.242 TC 42 11 237
2001106S08137 2001 20 SI WA ALISTAIR 2001-04-20 16:00:00 TS -19.3259 112.965 40 990 bom main 308 295 P_____O_____P_ SH202001 -19.1889 113.097 TS 41 0 -19.6000 112.700 30 40 990 3.00000 3 -19.1889 113.097 TC 41 10 236
2001106S08137 2001 20 SI WA ALISTAIR 2001-04-20 18:00:00 TS -19.5079 112.688 main 300 295 O_____P_____O_ jtwc_sh SH202001 -19.4000 112.800 TS 40 0 -19.7237 112.464 30 40 990 -19.4000 112.800 TC 40 9 236
2001106S08137 2001 20 SI WA ALISTAIR 2001-04-20 21:00:00 TS -19.7552 112.281 main 293 293 P_____P_____P_ SH202001 -19.7074 112.315 TS 40 0 -19.8510 112.213 30 40 990 -19.7074 112.315 TC 40 9 238
2001106S08137 2001 20 SI WA ALISTAIR 2001-04-20 22:00:00 TS -19.8385 112.131 40 990 bom main 306 298 P_____O_____P_ SH202001 -19.8078 112.147 TS 40 0 -19.9000 112.100 30 40 990 3.00000 3 -19.8078 112.147 TC 40 11 241
2001106S08137 2001 20 SI WA ALISTAIR 2001-04-21 00:00:00 TS -20.0077 111.791 main 311 311 O_____P_____O_ jtwc_sh SH202001 -20.0000 111.800 TS 40 0 -20.0232 111.774 30 40 990 -20.0000 111.800 TC 40 11 243
2001106S08137 2001 20 SI WA ALISTAIR 2001-04-21 01:00:00 TS -20.0910 111.608 40 990 bom main 320 320 P_____O_____P_ SH202001 -20.0865 111.612 TS 39 0 -20.1000 111.600 30 40 990 3.00000 3 -20.0865 111.612 TC 39 12 244
2001106S08137 2001 20 SI WA ALISTAIR 2001-04-21 03:00:00 TS -20.2623 111.240 main 341 341 P_____P_____P_ SH202001 -20.2501 111.227 TS 37 0 -20.2866 111.267 30 40 990 -20.2501 111.227 TC 37 12 243
2001106S08137 2001 20 SI WA ALISTAIR 2001-04-21 04:00:00 TS -20.3540 111.060 40 990 bom main 344 353 P_____O_____P_ SH202001 -20.3310 111.040 TS 36 0 -20.4000 111.100 30 40 990 3.00000 3 -20.3310 111.040 TC 36 12 239
2001106S08137 2001 20 SI WA ALISTAIR 2001-04-21 06:00:00 TS -20.5617 110.717 main 371 371 O_____P_____O_ jtwc_sh SH202001 -20.5000 110.700 TS 35 0 -20.6850 110.751 30 40 990 -20.5000 110.700 TC 35 11 236
2001106S08137 2001 20 SI WA ALISTAIR 2001-04-21 07:00:00 TS -20.6680 110.568 40 990 bom main 375 384 P_____O_____P_ SH202001 -20.6020 110.553 TS 35 0 -20.8000 110.600 30 40 990 3.00000 3 -20.6020 110.553 TC 35 9 233
2001106S08137 2001 20 SI WA ALISTAIR 2001-04-21 09:00:00 TS -20.8349 110.325 main 395 390 P_____P_____P_ SH202001 -20.8148 110.298 TS 35 0 -20.8750 110.381 30 40 990 -20.8148 110.298 TC 35 8 233
2001106S08137 2001 20 SI WA ALISTAIR 2001-04-21 10:00:00 TS -20.9121 110.225 40 990 bom main 399 393 P_____O_____P_ SH202001 -20.9181 110.188 TS 35 0 -20.9000 110.300 30 40 990 3.00000 3 -20.9181 110.188 TC 35 7 226
2001106S08137 2001 20 SI WA ALISTAIR 2001-04-21 12:00:00 TS -21.0786 110.054 main 398 398 O_____P_____O_ jtwc_sh SH202001 -21.1000 110.000 TS 35 0 -21.0358 110.161 30 40 990 -21.1000 110.000 TC 35 7 225
2001106S08137 2001 20 SI WA ALISTAIR 2001-04-21 13:00:00 TS -21.1412 109.977 40 990 bom main 407 402 P_____O_____P_ SH202001 -21.1618 109.916 TS 33 -1 -21.1000 110.100 30 40 990 3.00000 3 -21.1618 109.916 TC 33 5 233
2001106S08137 2001 20 SI WA ALISTAIR 2001-04-21 15:00:00 TS -21.2263 109.843 main 422 417 P_____P_____P_ SH202001 -21.2574 109.777 TS 30 -1 -21.1642 109.975 30 40 990 -21.2574 109.777 TC 30 4 236
2001106S08137 2001 20 SI WA ALISTAIR 2001-04-21 16:00:00 TS -21.2669 109.778 40 990 bom main 417 417 P_____O_____P_ SH202001 -21.3004 109.717 TS 28 -1 -21.2000 109.900 30 40 990 3.00000 3 -21.3004 109.717 TC 28 5 233
2001106S08137 2001 20 SI WA ALISTAIR 2001-04-21 18:00:00 TS -21.3760 109.633 main 433 433 O_____P_____O_ jtwc_sh SH202001 -21.4000 109.600 TD 25 -1 -21.3279 109.698 30 40 990 -21.4000 109.600 TC 25 6 230
2001106S08137 2001 20 SI WA ALISTAIR 2001-04-21 19:00:00 TS -21.4462 109.552 40 990 bom main 433 439 P_____O_____P_ SH202001 -21.4693 109.528 TD 25 -1 -21.4000 109.600 30 40 990 3.00000 3 -21.4693 109.528 TC 25 6 223
2001106S08137 2001 20 SI WA ALISTAIR 2001-04-21 21:00:00 TS -21.5935 109.410 main 446 443 P_____P_____P_ SH202001 -21.6275 109.385 TD 25 -1 -21.5254 109.461 30 40 990 -21.6275 109.385 TC 25 6 220
2001106S08137 2001 20 SI WA ALISTAIR 2001-04-21 22:00:00 TS -21.6764 109.345 40 990 bom main 453 451 P_____O_____P_ SH202001 -21.7146 109.318 TD 25 -1 -21.6000 109.400 30 40 990 3.00000 3 -21.7146 109.318 TC 25 6 212
2001106S08137 2001 20 SI WA ALISTAIR 2001-04-22 00:00:00 TS -21.8649 109.225 main 459 457 O_____P_____O_ jtwc_sh SH202001 -21.9000 109.200 TD 25 -1 -21.7945 109.275 30 40 990 -21.9000 109.200 TC 25 7 210
2001106S08137 2001 20 SI WA ALISTAIR 2001-04-22 01:00:00 TS -21.9629 109.163 40 990 bom main 457 457 P_____O_____P_ SH202001 -21.9943 109.145 TD 25 -1 -21.9000 109.200 30 40 990 3.00000 3 -21.9943 109.145 TC 25 7 211
2001106S08137 2001 20 SI WA ALISTAIR 2001-04-22 03:00:00 TS -22.1590 109.031 main 474 473 P_____P_____P_ SH202001 -22.1925 109.055 TD 25 -1 -22.0921 108.982 30 40 990 -22.1925 109.055 TC 25 7 210
2001106S08137 2001 20 SI WA ALISTAIR 2001-04-22 04:00:00 TS -22.2630 108.983 40 990 bom main 473 472 P_____O_____P_ SH202001 -22.2945 109.024 TD 25 -1 -22.2000 108.900 30 40 990 3.00000 3 -22.2945 109.024 TC 25 7 192
2001106S08137 2001 20 SI WA ALISTAIR 2001-04-22 06:00:00 TS -22.4897 108.959 main 472 472 O_____P_____O_ jtwc_sh SH202001 -22.5000 109.000 TD 25 -1 -22.4691 108.876 30 40 990 -22.5000 109.000 TC 25 7 0
2001106S08137 2001 20 SI WA ALISTAIR 2001-04-22 07:00:00 TS -22.6017 108.972 40 990 bom main 472 471 P_____O_____P_ SH202001 -22.6026 109.008 TD 25 -1 -22.6000 108.900 30 40 990 3.00000 3 -22.6026 109.008 TC 25 7 171
2001106S08137 2001 20 SI WA ALISTAIR 2001-04-22 09:00:00 TS -22.8068 109.026 main 472 462 P_____P_____P_ SH202001 -22.8075 109.062 TD 25 -1 -22.8054 108.953 30 40 990 -22.8075 109.062 TC 25 6 164
2001106S08137 2001 20 SI WA ALISTAIR 2001-04-22 10:00:00 TS -22.9053 109.069 40 990 bom main 462 447 P_____O_____P_ SH202001 -22.9079 109.104 TD 25 -1 -22.9000 109.000 30 40 990 3.00000 3 -22.9079 109.104 TC 25 7 154
2001106S08137 2001 20 SI WA ALISTAIR 2001-04-22 12:00:00 TS -23.1026 109.179 main 447 445 O_____P_____O_ jtwc_sh SH202001 -23.1000 109.200 TD 25 -1 -23.1079 109.136 30 40 990 -23.1000 109.200 TC 25 7 153
2001106S08137 2001 20 SI WA ALISTAIR 2001-04-22 13:00:00 TS -23.1927 109.231 40 990 bom main 445 432 P_____O_____P_ SH202001 -23.1891 109.247 TD 25 -1 -23.2000 109.200 30 40 990 3.00000 3 -23.1891 109.247 TC 25 6 153
2001106S08137 2001 20 SI WA ALISTAIR 2001-04-22 15:00:00 TS -23.3513 109.324 main 431 421 P_____P_____P_ SH202001 -23.3575 109.350 TD 25 -1 -23.3388 109.272 30 40 990 -23.3575 109.350 TC 25 5 151
2001106S08137 2001 20 SI WA ALISTAIR 2001-04-22 16:00:00 TS -23.4259 109.368 40 990 bom main 421 415 P_____O_____P_ SH202001 -23.4388 109.402 TD 25 -1 -23.4000 109.300 30 40 990 3.00000 3 -23.4388 109.402 TC 25 5 152
2001106S08137 2001 20 SI WA ALISTAIR 2001-04-22 18:00:00 TS -23.5751 109.456 main 405 403 O_____P_____O_ jtwc_sh SH202001 -23.6000 109.500 TD 25 -1 -23.5254 109.367 30 40 990 -23.6000 109.500 TC 25 5 156
2001106S08137 2001 20 SI WA ALISTAIR 2001-04-22 19:00:00 TS -23.6625 109.486 40 990 bom main 403 401 P_____O_____P_ SH202001 -23.6938 109.529 TD 25 -1 -23.6000 109.400 30 40 990 3.00000 3 -23.6938 109.529 TC 25 6 164
2001106S08137 2001 20 SI WA ALISTAIR 2001-04-22 21:00:00 TS -23.8514 109.541 main 399 389 P_____P_____P_ SH202001 -23.8799 109.578 TD 25 -1 -23.7946 109.467 30 40 990 -23.8799 109.578 TC 25 6 165
2001106S08137 2001 20 SI WA ALISTAIR 2001-04-22 22:00:00 TS -23.9432 109.571 40 990 bom main 389 386 P_____O_____P_ SH202001 -23.9648 109.607 TD 25 -1 -23.9000 109.500 30 40 990 3.00000 3 -23.9648 109.607 TC 25 5 159
2001106S08137 2001 20 SI WA ALISTAIR 2001-04-23 00:00:00 TS -24.1053 109.648 main 386 375 O_____P_____O_ jtwc_sh SH202001 -24.1000 109.700 TD 25 -1 -24.1158 109.543 30 40 990 -24.1000 109.700 TC 25 5 152
2001106S08137 2001 20 SI WA ALISTAIR 2001-04-23 01:00:00 TS -24.1648 109.702 40 990 bom main 375 355 P_____O_____P_ SH202001 -24.1472 109.754 TD 25 -1 -24.2000 109.600 30 40 990 3.00000 3 -24.1472 109.754 TC 25 5 120
2001106S08137 2001 20 SI WA ALISTAIR 2001-04-23 03:00:00 TS -24.2298 109.885 main 355 345 P_____P_____P_ SH202001 -24.2020 109.902 TD 25 -1 -24.2855 109.850 30 40 990 -24.2020 109.902 TC 25 6 105
2001106S08137 2001 20 SI WA ALISTAIR 2001-04-23 04:00:00 TS -24.2410 110.005 40 990 bom main 345 314 P_____O_____P_ SH202001 -24.2116 110.007 TD 25 -1 -24.3000 110.000 30 40 990 3.00000 3 -24.2116 110.007 TC 25 7 91
2001106S08137 2001 20 SI WA ALISTAIR 2001-04-23 06:00:00 TS -24.2351 110.284 main 314 294 O_____P_____O_ jtwc_sh SH202001 -24.2000 110.300 TD 25 -1 -24.3053 110.251 30 40 990 -24.2000 110.300 TC 25 8 87
2001106S08137 2001 20 SI WA ALISTAIR 2001-04-23 07:00:00 TS -24.2205 110.464 40 990 bom main 294 254 P_____O_____P_ SH202001 -24.1808 110.496 TD 25 -1 -24.3000 110.400 30 40 990 3.00000 3 -24.1808 110.496 TC 25 11 86
2001106S08137 2001 20 SI WA ALISTAIR 2001-04-23 09:00:00 TS -24.1928 110.898 main 254 234 P_____P_____P_ SH202001 -24.1213 110.970 TD 25 -1 -24.3000 110.789 30 40 990 -24.1213 110.970 TC 25 12 87
2001106S08137 2001 20 SI WA ALISTAIR 2001-04-23 10:00:00 TS -24.1919 111.119 40 990 bom main 234 193 P_____O_____P_ SH202001 -24.0838 111.237 TD 25 -1 -24.3000 111.000 30 40 990 3.00000 3 -24.0838 111.237 TC 25 11 90
2001106S08137 2001 20 SI WA ALISTAIR 2001-04-23 12:00:00 TS -24.1947 111.528 main 193 182 O_____P_____O_ jtwc_sh SH202001 -24.0000 111.800 TD 25 -1 -24.2920 111.392 30 40 990 -24.0000 111.800 TC 25 9 104
2001106S08137 2001 20 SI WA ALISTAIR 2001-04-23 13:00:00 NR -24.3000 111.600 40 990 bom main 182 141 ______O_______ SH202001 TD -1 -24.3000 111.600 30 40 990 3.00000 3 TC 10 109
2001106S08137 2001 20 SI WA ALISTAIR 2001-04-23 15:00:00 NR -24.3612 112.053 main 131 111 ______P_______ SH202001 TD -1 -24.3612 112.053 30 36 995 TC 13 99
2001106S08137 2001 20 SI WA ALISTAIR 2001-04-23 16:00:00 NR -24.4000 112.300 35 998 bom main 111 61 ______O_______ SH202001 TD -1 -24.4000 112.300 21 35 998 2.50000 3 TC 14 98
2001106S08137 2001 20 SI WA ALISTAIR 2001-04-23 18:00:00 NR -24.4587 112.820 main 61 32 ______P_______ -1 -24.4587 112.820 21 35 998 15 98
2001106S08137 2001 20 SI WA ALISTAIR 2001-04-23 19:00:00 NR -24.5000 113.100 35 998 bom main 32 0 ______O_______ -1 -24.5000 113.100 21 35 998 2.50000 3 16 102
2001106S08137 2001 20 SI WA ALISTAIR 2001-04-23 21:00:00 NR -24.6278 113.695 main 0 0 ______P_______ -1 -24.6278 113.695 21 35 999 17 104
2001106S08137 2001 20 SI WA ALISTAIR 2001-04-23 22:00:00 NR -24.7000 114.000 35 1000 bom main 0 0 ______O_______ -1 -24.7000 114.000 21 35 1000 2.00000 3 17 104
2001106S08137 2001 20 SI WA ALISTAIR 2001-04-24 00:00:00 NR -24.8356 114.602 main 0 0 ______P_______ -1 -24.8356 114.602 21 28 1001 17 104
2001106S08137 2001 20 SI WA ALISTAIR 2001-04-24 01:00:00 NR -24.9000 114.900 25 1002 bom main 0 ______O_______ -1 -24.9000 114.900 20 25 1002 3 17 103

デジタル台風データ・検索

IBTrACS Databaseについて

本データベースは、米国NOAAが公開する1842年以降の世界の熱帯低気圧のベストトラックデータアーカイブInternational Best Track Archive for Climate Stewardship (IBTrACS)を、ウェブで閲覧しやすい形式に変換したものです。

最終更新日:2021-10-08